EDLW/DTM METAR and TAF weather

Enter ICAO airport designator
Station Type Date Time Source
EDLW METAR 2018/01/24 07:20 UTC NOAA

EDLW 240720Z 21013KT 9999 FEW034 BKN052 11/07 Q1017


Station Type Date Time Source
EDLW Decoded METAR 2018/01/24 07:20 UTC NOAA

Dortmund / Wickede, Germany (EDLW) 51-31N 007-37E
Jan 24, 2018 - 02:20 AM EST / 2018.01.24 0720 UTC
Wind: from the SSW (210 degrees) at 15 MPH (13 KT):0
Visibility: greater than 7 mile(s):0
Sky conditions: mostly cloudy
Temperature: 51 F (11 C)
Dew Point: 44 F (7 C)
Relative Humidity: 76%
Pressure (altimeter): 30.03 in. Hg (1017 hPa)
ob: EDLW 240720Z 21013KT 9999 FEW034 BKN052 11/07 Q1017
cycle: 7

Station Type Date Time Source
EDLW TAF 2018/01/24 06:33 UTC NOAA

TAF TAF EDLW 240520Z 2406/2506 21015G25KT 9999 FEW010 BKN020
TEMPO 2406/2409 BKN010
TEMPO 2409/2420 21020G30KT
TEMPO 2420/2502 RA
BECMG 2503/2506 22010KT


Example: see airport list